KRID/RID METAR and TAF weather

Enter ICAO airport designator
Station Type Date Time Source
KRID METAR 2019/04/25 07:55 UTC NOAA

KRID 250755Z AUTO 08004KT 10SM OVC007 10/10 A2986 RMK AO2


Station Type Date Time Source
KRID Decoded METAR 2019/04/25 07:55 UTC NOAA

Station name not available
Apr 25, 2019 - 03:55 AM EDT / 2019.04.25 0755 UTC
Wind: from the E (080 degrees) at 5 MPH (4 KT):0
Visibility: 10 mile(s):0
Sky conditions: overcast
Temperature: 50 F (10 C)
Dew Point: 50 F (10 C)
Relative Humidity: 100%
Pressure (altimeter): 29.86 in. Hg (1011 hPa)
ob: KRID 250755Z AUTO 08004KT 10SM OVC007 10/10 A2986 RMK AO2
cycle: 8

Station Type Date Time Source
KRID TAF UTC NOAA

Error!

Example: see airport list